Cmb Virginie — VRIK2 — position and weather

sailwx.info

Track history (hours):
 
Tides and Currents Weather Stations Pressure Air Temp Water Temp Dewpoint Dewpoint Depression Visibility Wind Speed Wind Dir Waves Ship Positions

Cmb Virginie

Last reported at 2017-Nov-14 09:48 UTC. Time now 2017-Dec-15 00:38 UTC.
Position N 27°46' W 015°14'.
Warning: this ship's position is 30 days out of date.

Length 180 m; draft 10.2 m.

Type: Cargo ship. MMSI: 477514600.

Date/timePositionNaut miles runAvg speedWind from/ knotsBaromVisibWave heightAir tempDewpointWater temp
2017-Nov-14 09:48N 27°46' W 015°14'412.4
2017-Nov-14 09:28N 27°49' W 015°12'612.5
2017-Nov-14 09:00N 27°55' W 015°11'612.8
2017-Nov-14 08:30N 28°01' W 015°15'612.8
2017-Nov-14 08:00N 28°05' W 015°19'510.6
2017-Nov-14 07:30N 28°09' W 015°24'1 0.8
2017-Nov-14 06:54N 28°09' W 015°24'0 0.0
2017-Nov-14 06:24N 28°09' W 015°24'0 0.0
2017-Nov-14 05:54N 28°09' W 015°24'0 0.0
2017-Nov-14 05:24N 28°09' W 015°24'0 0.0
2017-Nov-14 04:54N 28°09' W 015°24'0 0.0
2017-Nov-14 04:24N 28°09' W 015°24'0 0.0
2017-Nov-14 03:54N 28°09' W 015°24'0 0.0
2017-Nov-14 03:27N 28°09' W 015°24'0 0.0
2017-Nov-14 02:57N 28°09' W 015°24'0 0.0
2017-Nov-14 02:27N 28°09' W 015°24'0 0.0
2017-Nov-14 01:57N 28°09' W 015°24'0 0.0
2017-Nov-14 01:27N 28°09' W 015°24'0 0.0
2017-Nov-14 00:57N 28°09' W 015°24'0 0.0
2017-Nov-14 00:30N 28°09' W 015°24'0 0.0
2017-Nov-14 00:00N 28°09' W 015°24'0 0.0
2017-Nov-13 23:30N 28°09' W 015°24'0 0.0
2017-Nov-13 23:00N 28°09' W 015°24'1 1.1
2017-Nov-13 22:30N 28°09' W 015°24'2 4.8
2017-Nov-13 22:00N 28°06' W 015°24'  
2017-Nov-11 07:13N 36°07' W 005°16'  
2017-Nov-07 22:39N 36°27' E 014°09'311.4
2017-Nov-07 22:22N 36°25' E 014°12'611.3
2017-Nov-07 21:51N 36°23' E 014°19'511.4
2017-Nov-07 21:27N 36°21' E 014°24'511.5
2017-Nov-07 21:00N 36°20' E 014°30'49911.1
2017-Nov-06 00:12N 37°11' E 024°50'213.5
2017-Nov-06 00:01N 37°12' E 024°53'713.7
2017-Nov-05 23:30N 37°15' E 025°01'714.3
2017-Nov-05 23:00N 37°17' E 025°10'713.9
2017-Nov-05 22:30N 37°19' E 025°18'713.5
2017-Nov-05 21:59N 37°20' E 025°27'713.4
2017-Nov-05 21:26N 37°22' E 025°36'  
Track history (hours):
 
Tides and Currents Weather Stations Pressure Air Temp Water Temp Dewpoint Dewpoint Depression Visibility Wind Speed Wind Dir Waves Ship Positions

Cmb Virginie

Last reported at 2017-Nov-14 09:48 UTC. Time now 2017-Dec-15 00:38 UTC.
Position N 27°46' W 015°14'.
Warning: this ship's position is 30 days out of date.

Length 180 m; draft 10.2 m.

Type: Cargo ship. MMSI: 477514600.

Date/timePositionNaut miles runAvg speedWind from/ knotsBaromVisibWave heightAir tempDewpointWater temp
2017-Nov-14 09:48N 27°46' W 015°14'412.4
2017-Nov-14 09:28N 27°49' W 015°12'612.5
2017-Nov-14 09:00N 27°55' W 015°11'612.8
2017-Nov-14 08:30N 28°01' W 015°15'612.8
2017-Nov-14 08:00N 28°05' W 015°19'510.6
2017-Nov-14 07:30N 28°09' W 015°24'1 0.8
2017-Nov-14 06:54N 28°09' W 015°24'0 0.0
2017-Nov-14 06:24N 28°09' W 015°24'0 0.0
2017-Nov-14 05:54N 28°09' W 015°24'0 0.0
2017-Nov-14 05:24N 28°09' W 015°24'0 0.0
2017-Nov-14 04:54N 28°09' W 015°24'0 0.0
2017-Nov-14 04:24N 28°09' W 015°24'0 0.0
2017-Nov-14 03:54N 28°09' W 015°24'0 0.0
2017-Nov-14 03:27N 28°09' W 015°24'0 0.0
2017-Nov-14 02:57N 28°09' W 015°24'0 0.0
2017-Nov-14 02:27N 28°09' W 015°24'0 0.0
2017-Nov-14 01:57N 28°09' W 015°24'0 0.0
2017-Nov-14 01:27N 28°09' W 015°24'0 0.0
2017-Nov-14 00:57N 28°09' W 015°24'0 0.0
2017-Nov-14 00:30N 28°09' W 015°24'0 0.0
2017-Nov-14 00:00N 28°09' W 015°24'0 0.0
2017-Nov-13 23:30N 28°09' W 015°24'0 0.0
2017-Nov-13 23:00N 28°09' W 015°24'1 1.1
2017-Nov-13 22:30N 28°09' W 015°24'2 4.8
2017-Nov-13 22:00N 28°06' W 015°24'  
2017-Nov-11 07:13N 36°07' W 005°16'  
2017-Nov-07 22:39N 36°27' E 014°09'311.4
2017-Nov-07 22:22N 36°25' E 014°12'611.3
2017-Nov-07 21:51N 36°23' E 014°19'511.4
2017-Nov-07 21:27N 36°21' E 014°24'511.5
2017-Nov-07 21:00N 36°20' E 014°30'49911.1
2017-Nov-06 00:12N 37°11' E 024°50'213.5
2017-Nov-06 00:01N 37°12' E 024°53'713.7
2017-Nov-05 23:30N 37°15' E 025°01'714.3
2017-Nov-05 23:00N 37°17' E 025°10'713.9
2017-Nov-05 22:30N 37°19' E 025°18'713.5
2017-Nov-05 21:59N 37°20' E 025°27'713.4
2017-Nov-05 21:26N 37°22' E 025°36'  

Dump ship's entire track history